Main page
METAR-TAF:

METAR-TAF

Airports :

Del Rio International Airport

Del Rio, Texas, United States

latitude: 29-22-29N, longitude: 100-55-25W, elevation: 997 ft

Current weather observation

The report was made 1 hour and 1 minutes ago, at 17:53 UTC
Wind 9 mph from the Southeast
Temperature 97°F
Humidity 37%
Pressure 29.93 in. Hg
Visibility: 10 miles
Broken clouds at a height of 6000 ft

METAR: KDRT 141753Z AUTO 13008KT 10SM BKN060 36/19 A2993 RMK AO2 SLP120 T03560189 10361 20283 58009

Time: 13:54 (18:54 UTC)

Forecast

The report was made 1 hour and 32 minutes ago, at 17:22 UTC
Forecast valid from 14 at 18 UTC to 15 at 18 UTC
Wind 16 mph from the Southeast
Visibility: 6 miles
Clear sky

TAF: KDRT 141722Z 1418/1518 13014KT P6SM SKC

Weather observations and forecasts of more than 4000 airports (METAR and TAF reports).

The available stations are represented by yellow and red dots on the map.

Hover mouse over dot to see the name of the station.

Then click to see weather observations and forecasts.

To change the map : click on the green buttons with a black cross to zoom in, on the green button with a dash to zoom out, or on the green arrows for adjacent maps.


METAR-TAF: